createdAt,value
2019-05-15T00:02:04.153Z,5.00
2019-05-15T00:04:34.886Z,5.00
2019-05-15T00:07:05.672Z,5.00
2019-05-15T00:09:39.261Z,5.00
2019-05-15T00:12:08.895Z,4.90
2019-05-15T00:14:39.711Z,4.90
2019-05-15T00:17:10.528Z,4.90
2019-05-15T00:19:41.284Z,4.90
2019-05-15T00:22:12.060Z,4.90
2019-05-15T00:24:42.857Z,4.80
2019-05-15T00:27:13.663Z,4.80
2019-05-15T00:29:44.420Z,4.80
2019-05-15T00:32:15.206Z,4.70
2019-05-15T00:34:46.002Z,4.70
2019-05-15T00:37:18.218Z,4.60
2019-05-15T00:39:49.054Z,4.60
2019-05-15T00:42:19.891Z,4.60
2019-05-15T00:44:50.687Z,4.60
2019-05-15T00:47:21.451Z,4.50
2019-05-15T00:49:52.219Z,4.50
2019-05-15T00:52:23.040Z,4.50
2019-05-15T00:54:53.805Z,4.60
2019-05-15T00:57:24.587Z,4.50
2019-05-15T00:59:55.374Z,4.60
2019-05-15T01:02:28.532Z,4.60
2019-05-15T01:04:58.635Z,4.50
2019-05-15T01:07:29.564Z,4.50
2019-05-15T01:10:00.231Z,4.50
2019-05-15T01:12:31.013Z,4.40
2019-05-15T01:15:01.753Z,4.40
2019-05-15T01:17:32.478Z,4.30
2019-05-15T01:20:03.226Z,4.20
2019-05-15T01:22:33.983Z,4.20
2019-05-15T01:25:04.778Z,4.20
2019-05-15T01:27:35.620Z,4.10
2019-05-15T01:30:08.821Z,4.10
2019-05-15T01:32:39.710Z,4.10
2019-05-15T01:35:10.715Z,4.10
2019-05-15T01:37:41.491Z,4.10
2019-05-15T01:40:12.447Z,4.00
2019-05-15T01:42:43.203Z,4.00
2019-05-15T01:45:13.959Z,4.00
2019-05-15T01:47:44.744Z,4.00
2019-05-15T01:50:15.612Z,4.00
2019-05-15T01:52:47.952Z,4.00
2019-05-15T01:55:18.826Z,4.00
2019-05-15T01:57:49.601Z,3.90
2019-05-15T02:00:20.768Z,3.80
2019-05-15T02:02:51.482Z,3.80
2019-05-15T02:05:22.361Z,3.80
2019-05-15T02:07:53.147Z,3.80
2019-05-15T02:10:23.972Z,3.80
2019-05-15T02:12:54.778Z,3.80
2019-05-15T02:15:25.884Z,3.80
2019-05-15T02:17:58.674Z,3.80
2019-05-15T02:20:29.255Z,3.80
2019-05-15T02:23:00.050Z,3.80
2019-05-15T02:25:30.759Z,3.80
2019-05-15T02:28:01.582Z,3.80
2019-05-15T02:30:34.016Z,3.80
2019-05-15T02:33:05.028Z,3.80
2019-05-15T02:35:38.864Z,3.80
2019-05-15T02:38:10.253Z,3.80
2019-05-15T02:40:41.128Z,3.80
2019-05-15T02:43:12.036Z,3.80
2019-05-15T02:45:42.803Z,3.80
2019-05-15T02:48:13.600Z,3.80
2019-05-15T02:50:44.364Z,3.70
2019-05-15T02:53:15.102Z,3.80
2019-05-15T02:55:49.193Z,3.80
2019-05-15T02:58:21.177Z,3.80
2019-05-15T03:00:53.465Z,3.70
2019-05-15T03:03:23.118Z,3.70
2019-05-15T03:05:53.884Z,3.70
2019-05-15T03:08:24.700Z,3.70
2019-05-15T03:10:58.946Z,3.70
2019-05-15T03:13:29.894Z,3.60
2019-05-15T03:16:00.370Z,3.60
2019-05-15T03:18:31.146Z,3.60
2019-05-15T03:21:01.936Z,3.50
2019-05-15T03:23:32.667Z,3.50
2019-05-15T03:26:04.547Z,3.50
2019-05-15T03:28:38.309Z,3.40
2019-05-15T03:31:26.507Z,3.40
2019-05-15T03:33:45.798Z,3.40
2019-05-15T03:36:14.024Z,3.40
2019-05-15T03:38:45.030Z,3.30
2019-05-15T03:41:19.171Z,3.30
2019-05-15T03:43:49.697Z,3.30
2019-05-15T03:46:20.716Z,3.20
2019-05-15T03:48:51.402Z,3.20
2019-05-15T03:51:22.201Z,3.20
2019-05-15T03:53:52.977Z,3.20
2019-05-15T03:56:23.826Z,3.10
2019-05-15T03:58:54.605Z,3.10
2019-05-15T04:01:34.120Z,3.20
2019-05-15T04:03:59.791Z,3.20
2019-05-15T04:06:30.126Z,3.30
2019-05-15T04:09:00.955Z,3.20
2019-05-15T04:11:31.783Z,3.20
2019-05-15T04:14:02.689Z,3.30
2019-05-15T04:16:33.634Z,3.30
2019-05-15T04:19:04.400Z,3.30
2019-05-15T04:21:35.147Z,3.30
2019-05-15T04:24:05.992Z,3.40
2019-05-15T04:26:39.469Z,3.40
2019-05-15T04:29:10.402Z,3.40
2019-05-15T04:31:51.712Z,3.40
2019-05-15T04:34:13.563Z,3.40
2019-05-15T04:36:44.833Z,3.50
2019-05-15T04:39:19.048Z,3.50
2019-05-15T04:41:50.023Z,3.60
2019-05-15T04:44:20.564Z,3.60
2019-05-15T04:46:51.331Z,3.60
2019-05-15T04:49:22.087Z,3.70
2019-05-15T04:51:52.844Z,3.70
2019-05-15T04:54:23.631Z,3.70
2019-05-15T04:56:54.425Z,3.80
2019-05-15T04:59:25.182Z,3.80
2019-05-15T05:02:13.000Z,3.90
2019-05-15T05:04:29.572Z,3.90
2019-05-15T05:07:00.716Z,3.90
2019-05-15T05:09:31.546Z,4.00
2019-05-15T05:12:02.323Z,4.00
2019-05-15T05:14:33.130Z,4.10
2019-05-15T05:17:03.867Z,4.20
2019-05-15T05:19:34.792Z,4.20
2019-05-15T05:22:07.728Z,4.30
2019-05-15T05:24:38.532Z,4.40
2019-05-15T05:27:09.423Z,4.60
2019-05-15T05:29:40.177Z,4.70
2019-05-15T05:32:10.973Z,4.80
2019-05-15T05:34:41.709Z,5.00
2019-05-15T05:37:12.467Z,5.40
2019-05-15T05:39:43.232Z,5.80
2019-05-15T05:42:14.039Z,6.20
2019-05-15T05:44:44.846Z,6.50
2019-05-15T05:47:15.582Z,6.60
2019-05-15T05:49:48.635Z,6.70
2019-05-15T05:52:18.797Z,6.70
2019-05-15T05:54:49.540Z,6.90
2019-05-15T05:57:20.187Z,7.00
2019-05-15T05:59:50.934Z,7.20
2019-05-15T06:02:21.650Z,7.50
2019-05-15T06:04:52.485Z,7.90
2019-05-15T06:07:23.287Z,8.00
2019-05-15T06:09:54.060Z,7.90
2019-05-15T06:12:24.805Z,7.70
2019-05-15T06:14:57.950Z,7.70
2019-05-15T06:17:28.155Z,7.60
2019-05-15T06:19:58.934Z,7.70
2019-05-15T06:22:29.711Z,7.60
2019-05-15T06:25:04.586Z,7.50
2019-05-15T06:27:32.893Z,7.50
2019-05-15T06:30:04.240Z,7.50
2019-05-15T06:32:34.986Z,7.70
2019-05-15T06:35:05.802Z,7.80
2019-05-15T06:37:39.648Z,7.80
2019-05-15T06:40:29.260Z,7.80
2019-05-15T06:43:00.016Z,7.80
2019-05-15T06:45:30.810Z,7.90
2019-05-15T06:48:01.657Z,7.90
2019-05-15T06:50:38.212Z,8.10
2019-05-15T06:53:10.849Z,8.10
2019-05-15T06:55:41.899Z,8.10
2019-05-15T06:58:12.676Z,8.10
2019-05-15T07:00:43.432Z,8.10
2019-05-15T07:03:21.647Z,8.10
2019-05-15T07:05:46.596Z,8.00
2019-05-15T07:08:18.134Z,8.10
2019-05-15T07:10:49.149Z,8.10
2019-05-15T07:13:19.994Z,8.10
2019-05-15T07:15:50.822Z,8.20
2019-05-15T07:18:21.578Z,8.10
2019-05-15T07:20:52.322Z,8.10
2019-05-15T07:23:26.731Z,8.10
2019-05-15T07:25:55.478Z,8.10
2019-05-15T07:28:28.685Z,8.30
2019-05-15T07:30:58.892Z,8.40
2019-05-15T07:33:39.644Z,8.40
2019-05-15T07:36:03.023Z,8.60
2019-05-15T07:38:33.749Z,8.60
2019-05-15T07:41:04.717Z,8.60
2019-05-15T07:43:35.422Z,8.60
2019-05-15T07:46:08.436Z,8.60
2019-05-15T07:48:38.671Z,8.60
2019-05-15T07:51:11.536Z,8.60
2019-05-15T07:53:41.778Z,8.80
2019-05-15T07:56:12.687Z,8.90
2019-05-15T07:58:43.451Z,9.10
2019-05-15T08:01:14.241Z,9.10
2019-05-15T08:03:56.658Z,9.00
2019-05-15T08:06:18.011Z,9.00
2019-05-15T08:08:48.913Z,8.90
2019-05-15T08:11:23.968Z,8.70
2019-05-15T08:13:52.131Z,8.70
2019-05-15T08:16:22.977Z,8.70
2019-05-15T08:18:53.681Z,8.80
2019-05-15T08:21:24.482Z,8.90
2019-05-15T08:23:55.237Z,9.00
2019-05-15T08:26:28.179Z,9.30
2019-05-15T08:28:58.340Z,9.50
2019-05-15T08:31:29.033Z,9.70
2019-05-15T08:34:12.651Z,9.70
2019-05-15T08:36:32.169Z,9.70
2019-05-15T08:39:04.211Z,9.70
2019-05-15T08:41:34.951Z,9.60
2019-05-15T08:44:05.810Z,9.50
2019-05-15T08:46:38.560Z,9.60
2019-05-15T08:49:09.299Z,9.70
2019-05-15T08:51:48.723Z,9.60
2019-05-15T08:54:19.593Z,9.60
2019-05-15T08:56:50.383Z,9.60
2019-05-15T08:59:21.139Z,9.60
2019-05-15T09:01:51.866Z,9.70
2019-05-15T09:04:30.801Z,9.70
2019-05-15T09:06:55.087Z,9.70
2019-05-15T09:09:25.947Z,9.60
2019-05-15T09:11:58.511Z,9.70
2019-05-15T09:14:29.158Z,9.70
2019-05-15T09:16:59.944Z,9.70
2019-05-15T09:19:30.711Z,9.80
2019-05-15T09:22:01.517Z,10.00
2019-05-15T09:24:32.285Z,10.20
2019-05-15T09:27:03.119Z,10.40
2019-05-15T09:29:33.912Z,10.50
2019-05-15T09:32:04.692Z,10.50
2019-05-15T09:34:48.021Z,10.60
2019-05-15T09:37:08.615Z,10.70
2019-05-15T09:39:39.452Z,10.70
2019-05-15T09:42:10.284Z,10.60
2019-05-15T09:44:41.004Z,10.70
2019-05-15T09:47:11.810Z,11.10
2019-05-15T09:49:42.586Z,11.10
2019-05-15T09:52:13.353Z,10.90
2019-05-15T09:54:44.739Z,11.00
2019-05-15T09:57:15.515Z,11.10
2019-05-15T09:59:48.679Z,11.10
2019-05-15T10:02:20.048Z,11.00
2019-05-15T10:05:05.517Z,11.10
2019-05-15T10:07:23.204Z,11.10
2019-05-15T10:09:54.020Z,11.00
2019-05-15T10:12:24.805Z,11.10
2019-05-15T10:14:55.610Z,11.20
2019-05-15T10:17:28.946Z,11.10
2019-05-15T10:19:58.803Z,11.10
2019-05-15T10:22:29.559Z,11.20
2019-05-15T10:25:00.355Z,11.00
2019-05-15T10:27:31.092Z,11.00
2019-05-15T10:30:01.886Z,11.00
2019-05-15T10:32:32.615Z,11.20
2019-05-15T10:35:03.441Z,11.40
2019-05-15T10:37:34.207Z,11.30
2019-05-15T10:40:06.129Z,11.10
2019-05-15T10:42:39.489Z,10.90
2019-05-15T10:45:09.863Z,11.00
2019-05-15T10:47:40.592Z,11.00
2019-05-15T10:50:11.857Z,11.40
2019-05-15T10:52:42.655Z,11.80
2019-05-15T10:55:13.984Z,11.70
2019-05-15T10:57:44.968Z,11.70
2019-05-15T11:00:19.498Z,11.90
2019-05-15T11:03:08.983Z,12.00
2019-05-15T11:05:45.285Z,11.90
2019-05-15T11:08:12.191Z,11.80
2019-05-15T11:10:43.434Z,11.80
2019-05-15T11:13:14.280Z,11.90
2019-05-15T11:15:45.047Z,11.90
2019-05-15T11:18:15.793Z,11.90
2019-05-15T11:20:48.783Z,11.80
2019-05-15T11:23:20.047Z,11.90
2019-05-15T11:25:51.164Z,12.10
2019-05-15T11:28:21.970Z,12.10
2019-05-15T11:30:52.805Z,11.80
2019-05-15T11:33:23.612Z,11.80
2019-05-15T11:36:05.018Z,12.00
2019-05-15T11:38:28.946Z,12.40
2019-05-15T11:40:59.600Z,12.80
2019-05-15T11:43:30.357Z,12.70
2019-05-15T11:46:01.174Z,12.70
2019-05-15T11:48:32.280Z,12.80
2019-05-15T11:51:03.105Z,12.90
2019-05-15T11:53:33.901Z,13.00
2019-05-15T11:56:04.657Z,13.10
2019-05-15T11:58:35.417Z,13.00
2019-05-15T12:01:08.491Z,12.80
2019-05-15T12:03:38.913Z,13.00
2019-05-15T12:06:18.036Z,13.10
2019-05-15T12:08:42.145Z,13.00
2019-05-15T12:11:30.835Z,13.00
2019-05-15T12:13:45.311Z,13.00
2019-05-15T12:16:16.110Z,13.10
2019-05-15T12:18:48.366Z,13.40
2019-05-15T12:21:20.032Z,13.60
2019-05-15T12:23:51.084Z,13.90
2019-05-15T12:26:21.946Z,14.20
2019-05-15T12:28:52.560Z,14.60
2019-05-15T12:31:24.723Z,15.00
2019-05-15T12:33:57.679Z,15.40
2019-05-15T12:36:50.060Z,15.90
2019-05-15T12:39:09.012Z,16.00
2019-05-15T13:01:52.266Z,15.50
2019-05-15T13:04:22.982Z,15.60
2019-05-15T13:07:10.438Z,15.70
2019-05-15T13:09:27.740Z,15.70
2019-05-15T13:11:58.671Z,15.40
2019-05-15T13:14:29.451Z,15.50
2019-05-15T13:17:00.229Z,15.50
2019-05-15T13:19:30.979Z,15.10
2019-05-15T13:22:01.785Z,15.10
2019-05-15T13:24:32.562Z,15.20
2019-05-15T13:27:03.338Z,15.40
2019-05-15T13:29:34.094Z,15.80
2019-05-15T13:32:04.974Z,15.70
2019-05-15T13:34:35.746Z,15.80
2019-05-15T13:37:08.836Z,16.10
2019-05-15T13:39:39.234Z,16.40
2019-05-15T13:42:10.179Z,15.90
2019-05-15T13:44:40.952Z,15.60
2019-05-15T13:47:11.759Z,15.20
2019-05-15T13:49:42.564Z,15.30
2019-05-15T13:52:13.390Z,15.70
2019-05-15T13:54:44.146Z,16.30
2019-05-15T13:57:17.945Z,17.60
2019-05-15T13:59:48.484Z,19.00
2019-05-15T14:02:19.397Z,19.10
2019-05-15T14:04:50.191Z,19.10
2019-05-15T14:07:21.008Z,19.00
2019-05-15T14:09:51.754Z,18.40
2019-05-15T14:12:22.560Z,18.10
2019-05-15T14:14:53.356Z,18.30
2019-05-15T14:17:24.153Z,17.70
2019-05-15T14:19:54.919Z,17.00
2019-05-15T14:22:25.695Z,16.70
2019-05-15T14:24:58.416Z,16.20
2019-05-15T14:27:29.348Z,15.50
2019-05-15T14:30:00.774Z,15.80
2019-05-15T14:32:37.694Z,17.70
2019-05-15T14:35:04.179Z,19.20
2019-05-15T14:37:35.004Z,20.10
2019-05-15T14:40:08.152Z,19.90
2019-05-15T14:42:39.785Z,19.10
2019-05-15T14:45:11.224Z,18.80
2019-05-15T14:47:42.041Z,18.30
2019-05-15T14:50:12.985Z,18.40
2019-05-15T14:52:43.762Z,18.30
2019-05-15T14:55:14.631Z,17.90
2019-05-15T14:57:45.528Z,17.70
2019-05-15T15:00:19.979Z,17.70
2019-05-15T15:02:49.590Z,17.80
2019-05-15T15:05:22.673Z,17.50
2019-05-15T15:07:52.968Z,16.90
2019-05-15T15:10:23.795Z,15.90
2019-05-15T15:12:54.512Z,15.30
2019-05-15T15:15:25.337Z,15.00
2019-05-15T15:17:58.155Z,14.80
2019-05-15T15:20:28.691Z,14.30
2019-05-15T15:22:59.497Z,13.90
2019-05-15T15:25:30.304Z,13.70
2019-05-15T15:28:01.118Z,13.80
2019-05-15T15:30:31.936Z,14.10
2019-05-15T15:33:02.912Z,14.30
2019-05-15T15:35:33.697Z,14.40
2019-05-15T15:38:04.437Z,14.20
2019-05-15T15:40:35.201Z,14.10
2019-05-15T15:43:08.592Z,13.90
2019-05-15T15:45:39.128Z,13.80
2019-05-15T15:48:10.039Z,13.60
2019-05-15T15:50:40.826Z,13.60
2019-05-15T15:53:11.618Z,13.60
2019-05-15T15:55:42.439Z,13.60
2019-05-15T15:58:13.206Z,13.60
2019-05-15T16:00:44.162Z,13.60
2019-05-15T16:03:14.896Z,13.30
2019-05-15T16:05:45.714Z,13.00
2019-05-15T16:08:18.914Z,13.00
2019-05-15T16:10:48.896Z,13.10
2019-05-15T16:13:19.960Z,13.10
2019-05-15T16:15:50.738Z,13.10
2019-05-15T16:18:21.524Z,13.10
2019-05-15T16:20:52.313Z,13.20
2019-05-15T16:23:23.050Z,13.20
2019-05-15T16:25:53.784Z,13.20
2019-05-15T16:28:24.480Z,13.20
2019-05-15T16:30:55.257Z,13.20
2019-05-15T16:33:28.214Z,13.10
2019-05-15T16:35:58.630Z,13.10
2019-05-15T16:38:29.416Z,13.10
2019-05-15T16:41:00.283Z,13.10
2019-05-15T16:43:31.049Z,13.10
2019-05-15T16:46:01.854Z,13.10
2019-05-15T16:48:32.561Z,13.10
2019-05-15T16:51:03.355Z,13.00
2019-05-15T16:53:34.094Z,12.90
2019-05-15T16:56:04.819Z,12.90
2019-05-15T16:58:35.605Z,12.90
2019-05-15T17:01:06.422Z,12.90
2019-05-15T17:03:38.027Z,12.80
2019-05-15T17:06:09.450Z,12.80
2019-05-15T17:08:40.592Z,12.80
2019-05-15T17:11:11.418Z,12.70
2019-05-15T17:13:42.205Z,12.60
2019-05-15T17:16:13.039Z,12.60
2019-05-15T17:18:43.839Z,12.60
2019-05-15T17:21:14.647Z,12.60
2019-05-15T17:23:45.378Z,12.60
2019-05-15T17:26:16.166Z,12.50
2019-05-15T17:28:46.943Z,12.50
2019-05-15T17:31:18.223Z,12.50
2019-05-15T17:33:49.103Z,12.60
2019-05-15T17:36:20.181Z,12.80
2019-05-15T17:38:50.958Z,12.90
2019-05-15T17:41:21.762Z,13.00
2019-05-15T17:43:52.508Z,13.00
2019-05-15T17:46:23.325Z,13.00
2019-05-15T17:48:56.797Z,12.90
2019-05-15T17:51:27.735Z,12.80
2019-05-15T17:53:58.487Z,12.80
2019-05-15T17:56:29.697Z,12.80
2019-05-15T17:59:00.548Z,12.80
2019-05-15T18:01:31.437Z,12.90
2019-05-15T18:04:02.304Z,12.90
2019-05-15T18:06:33.099Z,13.00
2019-05-15T18:09:05.083Z,12.90
2019-05-15T18:11:38.188Z,12.80
2019-05-15T18:14:08.920Z,12.50
2019-05-15T18:16:39.883Z,12.20
2019-05-15T18:19:10.629Z,12.00
2019-05-15T18:21:41.447Z,11.90
2019-05-15T18:24:12.302Z,11.80
2019-05-15T18:26:43.098Z,11.70
2019-05-15T18:29:13.924Z,11.50
2019-05-15T18:31:45.140Z,11.40
2019-05-15T18:34:15.916Z,11.30
2019-05-15T18:36:48.461Z,11.20
2019-05-15T18:39:19.220Z,11.10
2019-05-15T18:41:49.986Z,10.90
2019-05-15T18:44:20.836Z,10.80
2019-05-15T18:46:51.742Z,10.70
2019-05-15T18:49:22.549Z,10.60
2019-05-15T18:51:53.338Z,10.50
2019-05-15T18:54:24.187Z,10.40
2019-05-15T18:56:55.013Z,10.40
2019-05-15T18:59:25.809Z,10.30
2019-05-15T19:01:58.504Z,10.10
2019-05-15T19:04:29.004Z,10.10
2019-05-15T19:06:59.754Z,10.00
2019-05-15T19:09:30.566Z,9.90
2019-05-15T19:12:01.362Z,9.80
2019-05-15T19:14:32.447Z,9.60
2019-05-15T19:17:03.237Z,9.60
2019-05-15T19:19:34.060Z,9.50
2019-05-15T19:22:04.921Z,9.50
2019-05-15T19:24:39.892Z,9.50
2019-05-15T19:27:08.111Z,9.40
2019-05-15T19:29:38.926Z,9.40
2019-05-15T19:32:11.105Z,9.30
2019-05-15T19:34:42.048Z,9.30
2019-05-15T19:37:12.807Z,9.20
2019-05-15T19:39:43.652Z,9.10
2019-05-15T19:42:14.419Z,9.10
2019-05-15T19:44:45.223Z,9.10
2019-05-15T19:47:18.392Z,9.20
2019-05-15T19:49:48.488Z,9.10
2019-05-15T19:52:19.211Z,9.10
2019-05-15T19:54:50.010Z,9.00
2019-05-15T19:57:21.046Z,9.00
2019-05-15T19:59:51.831Z,9.00
2019-05-15T20:02:22.629Z,9.00
2019-05-15T20:04:53.437Z,9.00
2019-05-15T20:07:24.200Z,8.90
2019-05-15T20:09:55.017Z,8.90
2019-05-15T20:12:27.948Z,8.90
2019-05-15T20:14:58.489Z,8.80
2019-05-15T20:17:29.281Z,8.70
2019-05-15T20:20:00.255Z,8.80
2019-05-15T20:22:30.989Z,8.80
2019-05-15T20:25:01.816Z,8.80
2019-05-15T20:27:32.542Z,8.80
2019-05-15T20:30:03.358Z,8.80
2019-05-15T20:32:34.134Z,8.80
2019-05-15T20:35:05.379Z,8.80
2019-05-15T20:37:38.887Z,8.70
2019-05-15T20:40:09.505Z,8.80
2019-05-15T20:42:40.260Z,8.70
2019-05-15T20:45:12.383Z,8.70
2019-05-15T20:47:43.498Z,8.60
2019-05-15T20:50:14.749Z,8.60
2019-05-15T20:52:48.520Z,8.60
2019-05-15T20:55:17.933Z,8.60
2019-05-15T20:57:50.493Z,8.50
2019-05-15T21:00:21.684Z,8.50
2019-05-15T21:02:52.420Z,8.50
2019-05-15T21:05:23.219Z,8.40
2019-05-15T21:07:53.985Z,8.40
2019-05-15T21:10:24.912Z,8.30
2019-05-15T21:12:55.629Z,8.20
2019-05-15T21:15:26.794Z,8.20
2019-05-15T21:18:07.933Z,8.10
2019-05-15T21:20:29.992Z,8.00
2019-05-15T21:23:01.374Z,7.90
2019-05-15T21:25:32.443Z,7.90
2019-05-15T21:28:03.165Z,7.90
2019-05-15T21:30:33.981Z,7.90
2019-05-15T21:33:04.687Z,7.90
2019-05-15T21:35:35.523Z,7.80
2019-05-15T21:38:06.239Z,7.80
2019-05-15T21:40:38.594Z,7.80
2019-05-15T21:43:09.504Z,7.80
2019-05-15T21:45:40.268Z,7.80
2019-05-15T21:48:11.005Z,7.80
2019-05-15T21:50:41.830Z,7.80
2019-05-15T21:53:12.949Z,7.80
2019-05-15T21:55:43.700Z,7.80
2019-05-15T21:58:14.490Z,7.70
2019-05-15T22:00:48.560Z,7.70
2019-05-15T22:03:19.883Z,7.70
2019-05-15T22:05:50.685Z,7.70
2019-05-15T22:08:21.527Z,7.70
2019-05-15T22:10:52.461Z,7.60
2019-05-15T22:13:23.339Z,7.70
2019-05-15T22:16:08.015Z,7.60
2019-05-15T22:18:38.536Z,7.60
2019-05-15T22:21:09.390Z,7.60
2019-05-15T22:23:40.147Z,7.60
2019-05-15T22:26:10.939Z,7.60
2019-05-15T22:28:41.758Z,7.60
2019-05-15T22:31:12.480Z,7.60
2019-05-15T22:33:43.282Z,7.60
2019-05-15T22:36:14.028Z,7.70
2019-05-15T22:38:44.832Z,7.60
2019-05-15T22:41:15.599Z,7.60
2019-05-15T22:43:48.443Z,7.60
2019-05-15T22:46:18.795Z,7.60
2019-05-15T22:48:49.630Z,7.50
2019-05-15T22:51:20.405Z,7.50
2019-05-15T22:53:51.164Z,7.50
2019-05-15T22:56:21.898Z,7.60
2019-05-15T22:58:52.664Z,7.70
2019-05-15T23:01:23.442Z,7.70
2019-05-15T23:03:54.216Z,7.70
2019-05-15T23:06:24.973Z,7.70
2019-05-15T23:08:57.951Z,7.70
2019-05-15T23:11:29.964Z,7.70
2019-05-15T23:14:00.542Z,7.70
2019-05-15T23:16:31.319Z,7.80
2019-05-15T23:19:02.725Z,7.80
2019-05-15T23:21:33.522Z,7.80
2019-05-15T23:24:04.248Z,7.80
2019-05-15T23:26:34.935Z,7.80
2019-05-15T23:29:07.813Z,7.80
2019-05-15T23:31:37.969Z,7.80
2019-05-15T23:34:08.696Z,7.80
2019-05-15T23:36:39.430Z,7.80
2019-05-15T23:39:10.166Z,7.80
2019-05-15T23:41:40.822Z,7.80
2019-05-15T23:44:11.604Z,7.80
2019-05-15T23:46:42.326Z,7.80
2019-05-15T23:49:13.013Z,7.80
2019-05-15T23:51:43.757Z,7.80
2019-05-15T23:54:14.526Z,7.80
2019-05-15T23:56:45.271Z,7.80
2019-05-15T23:59:15.998Z,7.80
